Veurne, Belgium
Current Conditions -  °F | °C
As of 10:25 PM on Friday 19 Dec 2014 (Local Time) from EBFN Reporting Station
Few Clouds Few Clouds  
Wind Chill: 40°   Ceiling: Unl
Heat Index: 46°   Visibility: 6mi
Dew Point: 37°   Wind: 16mph
Humidity: 71%   Direction: 270°W
Pressure: 30.18"   Gusts: NA
Location:  51.07°N, 2.66°E
Report Text: EBFN 192125Z 27014KT 9999 FEW042 08/03 Q1022 BLU
Loading
Personal Weather Stations






























Interactive Weather Map New forecast layout! Learn more

10-Day Weather Forecast

Advertisements
Track Severe Weather on mobile